sensor_id;sensor_type;location;lat;lon;timestamp;temperature;humidity
4520;DHT22;2272;49.226;8.108;2022-07-11T00:00:59;16.40;99.90
4520;DHT22;2272;49.226;8.108;2022-07-11T00:03:25;16.40;99.90
4520;DHT22;2272;49.226;8.108;2022-07-11T00:05:54;16.40;99.90
4520;DHT22;2272;49.226;8.108;2022-07-11T00:08:21;16.30;99.90
4520;DHT22;2272;49.226;8.108;2022-07-11T00:10:48;16.30;99.90
4520;DHT22;2272;49.226;8.108;2022-07-11T00:13:14;16.30;99.90
4520;DHT22;2272;49.226;8.108;2022-07-11T00:15:41;16.30;99.90
4520;DHT22;2272;49.226;8.108;2022-07-11T00:18:08;16.30;99.90
4520;DHT22;2272;49.226;8.108;2022-07-11T00:20:34;16.30;99.90
4520;DHT22;2272;49.226;8.108;2022-07-11T00:23:02;16.30;99.90
4520;DHT22;2272;49.226;8.108;2022-07-11T00:25:29;16.30;99.90
4520;DHT22;2272;49.226;8.108;2022-07-11T00:27:56;16.30;99.90
4520;DHT22;2272;49.226;8.108;2022-07-11T00:30:22;16.20;99.90
4520;DHT22;2272;49.226;8.108;2022-07-11T00:32:49;16.20;99.90
4520;DHT22;2272;49.226;8.108;2022-07-11T00:35:16;16.30;99.90
4520;DHT22;2272;49.226;8.108;2022-07-11T00:37:42;16.20;99.90
4520;DHT22;2272;49.226;8.108;2022-07-11T00:40:11;16.30;99.90
4520;DHT22;2272;49.226;8.108;2022-07-11T00:42:37;16.30;99.90
4520;DHT22;2272;49.226;8.108;2022-07-11T00:45:05;16.20;99.90
4520;DHT22;2272;49.226;8.108;2022-07-11T00:47:31;16.10;99.90
4520;DHT22;2272;49.226;8.108;2022-07-11T00:49:58;16.00;99.90
4520;DHT22;2272;49.226;8.108;2022-07-11T00:52:25;16.00;99.90
4520;DHT22;2272;49.226;8.108;2022-07-11T00:54:52;16.00;99.90
4520;DHT22;2272;49.226;8.108;2022-07-11T00:57:21;15.90;99.90
4520;DHT22;2272;49.226;8.108;2022-07-11T00:59:48;15.90;99.90
4520;DHT22;2272;49.226;8.108;2022-07-11T01:02:15;15.90;99.90
4520;DHT22;2272;49.226;8.108;2022-07-11T01:04:42;15.90;99.90
4520;DHT22;2272;49.226;8.108;2022-07-11T01:07:09;15.80;99.90
4520;DHT22;2272;49.226;8.108;2022-07-11T01:09:35;15.80;99.90
4520;DHT22;2272;49.226;8.108;2022-07-11T01:12:03;15.80;99.90
4520;DHT22;2272;49.226;8.108;2022-07-11T01:14:31;15.80;99.90
4520;DHT22;2272;49.226;8.108;2022-07-11T01:16:57;15.80;99.90
4520;DHT22;2272;49.226;8.108;2022-07-11T01:19:24;15.90;99.90
4520;DHT22;2272;49.226;8.108;2022-07-11T01:21:52;15.90;99.90
4520;DHT22;2272;49.226;8.108;2022-07-11T01:24:24;15.90;99.90
4520;DHT22;2272;49.226;8.108;2022-07-11T01:26:51;15.90;99.90
4520;DHT22;2272;49.226;8.108;2022-07-11T01:29:18;15.90;99.90
4520;DHT22;2272;49.226;8.108;2022-07-11T01:31:45;15.90;99.90
4520;DHT22;2272;49.226;8.108;2022-07-11T01:34:12;15.90;99.90
4520;DHT22;2272;49.226;8.108;2022-07-11T01:36:39;15.90;99.90
4520;DHT22;2272;49.226;8.108;2022-07-11T01:39:08;15.90;99.90
4520;DHT22;2272;49.226;8.108;2022-07-11T01:41:36;15.90;99.90
4520;DHT22;2272;49.226;8.108;2022-07-11T01:44:02;15.90;99.90
4520;DHT22;2272;49.226;8.108;2022-07-11T01:46:29;15.90;99.90
4520;DHT22;2272;49.226;8.108;2022-07-11T01:48:56;16.00;99.90
4520;DHT22;2272;49.226;8.108;2022-07-11T01:51:23;16.00;99.90
4520;DHT22;2272;49.226;8.108;2022-07-11T01:53:50;16.00;99.90
4520;DHT22;2272;49.226;8.108;2022-07-11T01:56:17;16.10;99.90
4520;DHT22;2272;49.226;8.108;2022-07-11T01:58:45;16.10;99.90
4520;DHT22;2272;49.226;8.108;2022-07-11T02:01:12;16.10;99.90
4520;DHT22;2272;49.226;8.108;2022-07-11T02:03:39;16.20;99.90
4520;DHT22;2272;49.226;8.108;2022-07-11T02:06:06;16.20;99.90
4520;DHT22;2272;49.226;8.108;2022-07-11T02:08:33;16.20;99.90
4520;DHT22;2272;49.226;8.108;2022-07-11T02:10:59;16.10;99.90
4520;DHT22;2272;49.226;8.108;2022-07-11T02:13:26;16.10;99.90
4520;DHT22;2272;49.226;8.108;2022-07-11T02:15:54;16.10;99.90
4520;DHT22;2272;49.226;8.108;2022-07-11T02:18:21;16.20;99.90
4520;DHT22;2272;49.226;8.108;2022-07-11T02:20:48;16.20;99.90
4520;DHT22;2272;49.226;8.108;2022-07-11T02:23:16;16.10;99.90
4520;DHT22;2272;49.226;8.108;2022-07-11T02:25:43;16.10;99.90
4520;DHT22;2272;49.226;8.108;2022-07-11T02:28:10;16.20;99.90
4520;DHT22;2272;49.226;8.108;2022-07-11T02:30:39;16.20;99.90
4520;DHT22;2272;49.226;8.108;2022-07-11T02:33:07;16.20;99.90
4520;DHT22;2272;49.226;8.108;2022-07-11T02:35:36;16.20;99.90
4520;DHT22;2272;49.226;8.108;2022-07-11T02:38:03;16.20;99.90
4520;DHT22;2272;49.226;8.108;2022-07-11T02:40:30;16.20;99.90
4520;DHT22;2272;49.226;8.108;2022-07-11T02:42:57;16.20;99.90
4520;DHT22;2272;49.226;8.108;2022-07-11T02:45:23;16.20;99.90
4520;DHT22;2272;49.226;8.108;2022-07-11T02:47:50;16.20;99.90
4520;DHT22;2272;49.226;8.108;2022-07-11T02:50:18;16.20;99.90
4520;DHT22;2272;49.226;8.108;2022-07-11T02:52:45;16.20;99.90
4520;DHT22;2272;49.226;8.108;2022-07-11T02:55:12;16.20;99.90
4520;DHT22;2272;49.226;8.108;2022-07-11T02:57:41;16.30;99.90
4520;DHT22;2272;49.226;8.108;2022-07-11T03:00:11;16.30;99.90
4520;DHT22;2272;49.226;8.108;2022-07-11T03:02:38;16.30;99.90
4520;DHT22;2272;49.226;8.108;2022-07-11T03:05:05;16.30;99.90
4520;DHT22;2272;49.226;8.108;2022-07-11T03:07:33;16.30;99.90
4520;DHT22;2272;49.226;8.108;2022-07-11T03:10:00;16.30;99.90
4520;DHT22;2272;49.226;8.108;2022-07-11T03:12:27;16.20;99.90
4520;DHT22;2272;49.226;8.108;2022-07-11T03:14:54;16.20;99.90
4520;DHT22;2272;49.226;8.108;2022-07-11T03:17:20;16.20;99.90
4520;DHT22;2272;49.226;8.108;2022-07-11T03:19:47;16.10;99.90
4520;DHT22;2272;49.226;8.108;2022-07-11T03:22:14;16.10;99.90
4520;DHT22;2272;49.226;8.108;2022-07-11T03:24:42;16.10;99.90
4520;DHT22;2272;49.226;8.108;2022-07-11T03:27:09;16.00;99.90
4520;DHT22;2272;49.226;8.108;2022-07-11T03:29:36;16.00;99.90
4520;DHT22;2272;49.226;8.108;2022-07-11T03:32:04;16.10;99.90
4520;DHT22;2272;49.226;8.108;2022-07-11T03:34:30;16.10;99.90
4520;DHT22;2272;49.226;8.108;2022-07-11T03:36:57;16.10;99.90
4520;DHT22;2272;49.226;8.108;2022-07-11T03:39:24;16.10;99.90
4520;DHT22;2272;49.226;8.108;2022-07-11T03:41:52;16.20;99.90
4520;DHT22;2272;49.226;8.108;2022-07-11T03:44:19;16.20;99.90
4520;DHT22;2272;49.226;8.108;2022-07-11T03:46:46;16.30;99.90
4520;DHT22;2272;49.226;8.108;2022-07-11T03:49:13;16.30;99.90
4520;DHT22;2272;49.226;8.108;2022-07-11T03:51:40;16.30;99.90
4520;DHT22;2272;49.226;8.108;2022-07-11T03:54:06;16.30;99.90
4520;DHT22;2272;49.226;8.108;2022-07-11T03:56:33;16.40;99.90
4520;DHT22;2272;49.226;8.108;2022-07-11T03:59:01;16.40;99.90
4520;DHT22;2272;49.226;8.108;2022-07-11T04:01:28;16.40;99.90
4520;DHT22;2272;49.226;8.108;2022-07-11T04:03:55;16.40;99.90
4520;DHT22;2272;49.226;8.108;2022-07-11T04:06:21;16.40;99.90
4520;DHT22;2272;49.226;8.108;2022-07-11T04:08:48;16.30;99.90
4520;DHT22;2272;49.226;8.108;2022-07-11T04:11:15;16.40;99.90
4520;DHT22;2272;49.226;8.108;2022-07-11T04:13:42;16.40;99.90
4520;DHT22;2272;49.226;8.108;2022-07-11T04:16:10;16.40;99.90
4520;DHT22;2272;49.226;8.108;2022-07-11T04:18:37;16.40;99.90
4520;DHT22;2272;49.226;8.108;2022-07-11T04:21:03;16.50;99.90
4520;DHT22;2272;49.226;8.108;2022-07-11T04:23:30;16.50;99.90
4520;DHT22;2272;49.226;8.108;2022-07-11T04:25:57;16.50;99.90
4520;DHT22;2272;49.226;8.108;2022-07-11T04:28:24;16.50;99.90
4520;DHT22;2272;49.226;8.108;2022-07-11T04:30:50;16.60;99.90
4520;DHT22;2272;49.226;8.108;2022-07-11T04:33:18;16.60;99.90
4520;DHT22;2272;49.226;8.108;2022-07-11T04:35:45;16.70;99.90
4520;DHT22;2272;49.226;8.108;2022-07-11T04:38:12;16.70;99.90
4520;DHT22;2272;49.226;8.108;2022-07-11T04:40:38;16.70;99.90
4520;DHT22;2272;49.226;8.108;2022-07-11T04:43:05;16.80;99.90
4520;DHT22;2272;49.226;8.108;2022-07-11T04:45:32;16.80;99.90
4520;DHT22;2272;49.226;8.108;2022-07-11T04:47:58;16.90;99.90
4520;DHT22;2272;49.226;8.108;2022-07-11T04:50:28;17.00;99.90
4520;DHT22;2272;49.226;8.108;2022-07-11T04:52:55;17.10;99.90
4520;DHT22;2272;49.226;8.108;2022-07-11T04:55:22;17.10;99.90
4520;DHT22;2272;49.226;8.108;2022-07-11T04:57:48;17.20;99.90
4520;DHT22;2272;49.226;8.108;2022-07-11T05:00:15;17.30;99.90
4520;DHT22;2272;49.226;8.108;2022-07-11T05:02:42;17.40;99.90
4520;DHT22;2272;49.226;8.108;2022-07-11T05:05:09;17.50;99.90
4520;DHT22;2272;49.226;8.108;2022-07-11T05:07:37;17.60;99.90
4520;DHT22;2272;49.226;8.108;2022-07-11T05:10:05;17.60;99.90
4520;DHT22;2272;49.226;8.108;2022-07-11T05:12:32;17.70;99.90
4520;DHT22;2272;49.226;8.108;2022-07-11T05:14:59;17.80;99.90
4520;DHT22;2272;49.226;8.108;2022-07-11T05:17:26;17.90;99.90
4520;DHT22;2272;49.226;8.108;2022-07-11T05:19:53;18.00;99.90
4520;DHT22;2272;49.226;8.108;2022-07-11T05:22:19;18.10;99.90
4520;DHT22;2272;49.226;8.108;2022-07-11T05:24:48;18.20;99.90
4520;DHT22;2272;49.226;8.108;2022-07-11T05:27:14;18.30;99.90
4520;DHT22;2272;49.226;8.108;2022-07-11T05:29:41;18.40;99.90
4520;DHT22;2272;49.226;8.108;2022-07-11T05:32:08;18.50;99.90
4520;DHT22;2272;49.226;8.108;2022-07-11T05:34:35;18.70;99.90
4520;DHT22;2272;49.226;8.108;2022-07-11T05:37:02;18.90;99.90
4520;DHT22;2272;49.226;8.108;2022-07-11T05:39:29;19.10;99.90
4520;DHT22;2272;49.226;8.108;2022-07-11T05:41:57;19.20;99.90
4520;DHT22;2272;49.226;8.108;2022-07-11T05:44:23;19.40;99.90
4520;DHT22;2272;49.226;8.108;2022-07-11T05:46:50;19.60;99.90
4520;DHT22;2272;49.226;8.108;2022-07-11T05:49:17;19.80;99.90
4520;DHT22;2272;49.226;8.108;2022-07-11T05:51:43;19.90;99.90
4520;DHT22;2272;49.226;8.108;2022-07-11T05:54:10;20.10;99.90
4520;DHT22;2272;49.226;8.108;2022-07-11T05:56:37;20.30;99.90
4520;DHT22;2272;49.226;8.108;2022-07-11T05:59:05;20.50;99.90
4520;DHT22;2272;49.226;8.108;2022-07-11T06:01:32;20.70;99.90
4520;DHT22;2272;49.226;8.108;2022-07-11T06:03:58;20.90;99.90
4520;DHT22;2272;49.226;8.108;2022-07-11T06:06:26;21.10;99.90
4520;DHT22;2272;49.226;8.108;2022-07-11T06:08:53;21.20;99.90
4520;DHT22;2272;49.226;8.108;2022-07-11T06:11:20;21.30;99.90
4520;DHT22;2272;49.226;8.108;2022-07-11T06:13:46;21.40;99.90
4520;DHT22;2272;49.226;8.108;2022-07-11T06:16:16;21.50;99.90
4520;DHT22;2272;49.226;8.108;2022-07-11T06:18:44;21.70;99.90
4520;DHT22;2272;49.226;8.108;2022-07-11T06:21:11;21.90;99.90
4520;DHT22;2272;49.226;8.108;2022-07-11T06:23:38;22.00;99.90
4520;DHT22;2272;49.226;8.108;2022-07-11T06:26:05;22.00;99.90
4520;DHT22;2272;49.226;8.108;2022-07-11T06:28:32;22.10;99.90
4520;DHT22;2272;49.226;8.108;2022-07-11T06:30:59;22.30;99.90
4520;DHT22;2272;49.226;8.108;2022-07-11T06:33:27;22.50;99.90
4520;DHT22;2272;49.226;8.108;2022-07-11T06:35:54;22.60;99.90
4520;DHT22;2272;49.226;8.108;2022-07-11T06:38:20;22.80;99.90
4520;DHT22;2272;49.226;8.108;2022-07-11T06:40:47;22.90;99.90
4520;DHT22;2272;49.226;8.108;2022-07-11T06:43:14;23.20;99.90
4520;DHT22;2272;49.226;8.108;2022-07-11T06:45:41;23.50;99.90
4520;DHT22;2272;49.226;8.108;2022-07-11T06:48:07;23.70;99.90
4520;DHT22;2272;49.226;8.108;2022-07-11T06:50:35;23.70;99.90
4520;DHT22;2272;49.226;8.108;2022-07-11T06:53:03;23.70;99.90
4520;DHT22;2272;49.226;8.108;2022-07-11T06:55:30;23.60;99.90
4520;DHT22;2272;49.226;8.108;2022-07-11T06:57:57;23.60;99.90
4520;DHT22;2272;49.226;8.108;2022-07-11T07:00:23;23.60;99.90
4520;DHT22;2272;49.226;8.108;2022-07-11T07:02:50;23.80;99.90
4520;DHT22;2272;49.226;8.108;2022-07-11T07:05:17;23.90;99.90
4520;DHT22;2272;49.226;8.108;2022-07-11T07:07:45;24.00;99.90
4520;DHT22;2272;49.226;8.108;2022-07-11T07:10:12;23.90;99.90
4520;DHT22;2272;49.226;8.108;2022-07-11T07:12:39;23.80;99.90
4520;DHT22;2272;49.226;8.108;2022-07-11T07:15:06;23.90;99.90
4520;DHT22;2272;49.226;8.108;2022-07-11T07:17:34;23.70;99.90
4520;DHT22;2272;49.226;8.108;2022-07-11T07:20:01;23.60;99.90
4520;DHT22;2272;49.226;8.108;2022-07-11T07:22:28;23.70;99.90
4520;DHT22;2272;49.226;8.108;2022-07-11T07:24:56;23.70;99.90
4520;DHT22;2272;49.226;8.108;2022-07-11T07:27:23;23.70;99.90
4520;DHT22;2272;49.226;8.108;2022-07-11T07:29:49;23.70;99.90
4520;DHT22;2272;49.226;8.108;2022-07-11T07:32:16;23.60;99.90
4520;DHT22;2272;49.226;8.108;2022-07-11T07:34:43;23.40;99.90
4520;DHT22;2272;49.226;8.108;2022-07-11T07:37:10;23.30;99.90
4520;DHT22;2272;49.226;8.108;2022-07-11T07:39:36;23.10;99.90
4520;DHT22;2272;49.226;8.108;2022-07-11T07:42:05;22.70;99.90
4520;DHT22;2272;49.226;8.108;2022-07-11T07:44:32;22.70;99.90
4520;DHT22;2272;49.226;8.108;2022-07-11T07:46:59;22.90;99.90
4520;DHT22;2272;49.226;8.108;2022-07-11T07:49:26;23.00;99.90
4520;DHT22;2272;49.226;8.108;2022-07-11T07:51:53;23.00;99.90
4520;DHT22;2272;49.226;8.108;2022-07-11T07:54:20;23.00;99.90
4520;DHT22;2272;49.226;8.108;2022-07-11T07:56:46;23.20;99.90
4520;DHT22;2272;49.226;8.108;2022-07-11T07:59:14;23.30;99.90
4520;DHT22;2272;49.226;8.108;2022-07-11T08:01:41;23.60;99.90
4520;DHT22;2272;49.226;8.108;2022-07-11T08:04:11;23.80;99.90
4520;DHT22;2272;49.226;8.108;2022-07-11T08:06:38;24.40;99.70
4520;DHT22;2272;49.226;8.108;2022-07-11T08:09:06;25.00;98.20
4520;DHT22;2272;49.226;8.108;2022-07-11T08:11:33;25.20;97.60
4520;DHT22;2272;49.226;8.108;2022-07-11T08:14:01;25.20;97.60
4520;DHT22;2272;49.226;8.108;2022-07-11T08:16:31;25.20;97.10
4520;DHT22;2272;49.226;8.108;2022-07-11T08:18:59;25.50;96.90
4520;DHT22;2272;49.226;8.108;2022-07-11T08:21:26;25.90;96.30
4520;DHT22;2272;49.226;8.108;2022-07-11T08:23:53;26.40;95.90
4520;DHT22;2272;49.226;8.108;2022-07-11T08:26:19;26.90;95.50
4520;DHT22;2272;49.226;8.108;2022-07-11T08:28:46;27.30;95.00
4520;DHT22;2272;49.226;8.108;2022-07-11T08:31:13;27.80;94.20
4520;DHT22;2272;49.226;8.108;2022-07-11T08:33:41;28.20;93.00
4520;DHT22;2272;49.226;8.108;2022-07-11T08:36:07;28.20;91.60
4520;DHT22;2272;49.226;8.108;2022-07-11T08:38:34;27.60;91.40
4520;DHT22;2272;49.226;8.108;2022-07-11T08:41:01;27.10;92.10
4520;DHT22;2272;49.226;8.108;2022-07-11T08:43:28;26.80;92.50
4520;DHT22;2272;49.226;8.108;2022-07-11T08:45:56;26.50;92.40
4520;DHT22;2272;49.226;8.108;2022-07-11T08:48:23;26.20;93.10
4520;DHT22;2272;49.226;8.108;2022-07-11T08:50:52;25.80;93.50
4520;DHT22;2272;49.226;8.108;2022-07-11T08:53:18;25.60;94.30
4520;DHT22;2272;49.226;8.108;2022-07-11T08:55:46;25.30;93.70
4520;DHT22;2272;49.226;8.108;2022-07-11T08:58:13;25.10;94.20
4520;DHT22;2272;49.226;8.108;2022-07-11T09:00:41;24.90;94.40
4520;DHT22;2272;49.226;8.108;2022-07-11T09:03:13;24.90;94.40
4520;DHT22;2272;49.226;8.108;2022-07-11T09:05:41;25.00;94.40
4520;DHT22;2272;49.226;8.108;2022-07-11T09:08:09;25.40;94.00
4520;DHT22;2272;49.226;8.108;2022-07-11T09:10:38;25.70;93.70
4520;DHT22;2272;49.226;8.108;2022-07-11T09:13:07;26.00;93.50
4520;DHT22;2272;49.226;8.108;2022-07-11T09:15:36;26.20;92.90
4520;DHT22;2272;49.226;8.108;2022-07-11T09:18:05;26.10;92.80
4520;DHT22;2272;49.226;8.108;2022-07-11T09:20:54;26.20;92.50
4520;DHT22;2272;49.226;8.108;2022-07-11T09:23:41;26.40;92.30
4520;DHT22;2272;49.226;8.108;2022-07-11T09:26:42;26.50;92.00
4520;DHT22;2272;49.226;8.108;2022-07-11T09:29:10;26.50;92.00
4520;DHT22;2272;49.226;8.108;2022-07-11T09:31:38;26.50;91.90
4520;DHT22;2272;49.226;8.108;2022-07-11T09:34:06;26.70;92.10
4520;DHT22;2272;49.226;8.108;2022-07-11T09:36:44;26.90;91.60
4520;DHT22;2272;49.226;8.108;2022-07-11T09:39:15;27.00;92.00
4520;DHT22;2272;49.226;8.108;2022-07-11T09:41:42;27.40;91.10
4520;DHT22;2272;49.226;8.108;2022-07-11T09:44:15;27.60;90.30
4520;DHT22;2272;49.226;8.108;2022-07-11T09:46:43;27.60;90.40
4520;DHT22;2272;49.226;8.108;2022-07-11T09:49:12;27.50;90.00
4520;DHT22;2272;49.226;8.108;2022-07-11T09:51:40;27.50;90.10
4520;DHT22;2272;49.226;8.108;2022-07-11T09:54:08;27.30;90.10
4520;DHT22;2272;49.226;8.108;2022-07-11T09:56:40;27.20;90.20
4520;DHT22;2272;49.226;8.108;2022-07-11T09:59:09;27.10;90.30
4520;DHT22;2272;49.226;8.108;2022-07-11T10:01:37;27.10;90.70
4520;DHT22;2272;49.226;8.108;2022-07-11T10:04:06;27.10;90.40
4520;DHT22;2272;49.226;8.108;2022-07-11T10:06:33;26.90;90.50
4520;DHT22;2272;49.226;8.108;2022-07-11T10:09:00;26.60;90.30
4520;DHT22;2272;49.226;8.108;2022-07-11T10:11:27;26.50;90.70
4520;DHT22;2272;49.226;8.108;2022-07-11T10:13:55;26.50;90.80
4520;DHT22;2272;49.226;8.108;2022-07-11T10:16:34;26.50;90.60
4520;DHT22;2272;49.226;8.108;2022-07-11T10:19:18;26.40;90.60
4520;DHT22;2272;49.226;8.108;2022-07-11T10:21:56;26.50;90.80
4520;DHT22;2272;49.226;8.108;2022-07-11T10:24:36;26.80;90.50
4520;DHT22;2272;49.226;8.108;2022-07-11T10:27:10;27.10;89.70
4520;DHT22;2272;49.226;8.108;2022-07-11T10:29:43;27.20;90.20
4520;DHT22;2272;49.226;8.108;2022-07-11T10:32:12;27.40;90.00
4520;DHT22;2272;49.226;8.108;2022-07-11T10:34:39;27.70;90.10
4520;DHT22;2272;49.226;8.108;2022-07-11T10:37:07;27.70;88.90
4520;DHT22;2272;49.226;8.108;2022-07-11T10:39:35;27.70;89.60
4520;DHT22;2272;49.226;8.108;2022-07-11T10:42:03;27.60;90.10
4520;DHT22;2272;49.226;8.108;2022-07-11T10:44:50;27.50;89.30
4520;DHT22;2272;49.226;8.108;2022-07-11T10:47:33;27.30;89.60
4520;DHT22;2272;49.226;8.108;2022-07-11T10:50:10;27.00;89.60
4520;DHT22;2272;49.226;8.108;2022-07-11T10:52:40;26.80;89.50
4520;DHT22;2272;49.226;8.108;2022-07-11T10:55:21;26.70;90.00
4520;DHT22;2272;49.226;8.108;2022-07-11T10:58:11;26.60;90.80
4520;DHT22;2272;49.226;8.108;2022-07-11T11:00:41;26.70;90.80
4520;DHT22;2272;49.226;8.108;2022-07-11T11:03:09;26.50;90.10
4520;DHT22;2272;49.226;8.108;2022-07-11T11:05:46;26.30;90.80
4520;DHT22;2272;49.226;8.108;2022-07-11T11:08:45;26.50;91.20
4520;DHT22;2272;49.226;8.108;2022-07-11T11:11:37;26.30;90.50
4520;DHT22;2272;49.226;8.108;2022-07-11T11:14:17;25.80;91.20
4520;DHT22;2272;49.226;8.108;2022-07-11T11:16:46;25.70;91.50
4520;DHT22;2272;49.226;8.108;2022-07-11T11:22:13;26.00;91.20
4520;DHT22;2272;49.226;8.108;2022-07-11T11:24:42;26.10;91.40
4520;DHT22;2272;49.226;8.108;2022-07-11T11:27:16;26.40;90.80
4520;DHT22;2272;49.226;8.108;2022-07-11T11:29:43;26.90;90.60
4520;DHT22;2272;49.226;8.108;2022-07-11T11:32:11;27.70;89.50
4520;DHT22;2272;49.226;8.108;2022-07-11T11:34:39;28.10;87.10
4520;DHT22;2272;49.226;8.108;2022-07-11T11:37:05;28.10;87.10
4520;DHT22;2272;49.226;8.108;2022-07-11T11:39:34;27.80;86.90
4520;DHT22;2272;49.226;8.108;2022-07-11T11:42:06;27.60;87.90
4520;DHT22;2272;49.226;8.108;2022-07-11T11:44:33;27.80;87.10
4520;DHT22;2272;49.226;8.108;2022-07-11T11:47:00;27.50;87.90
4520;DHT22;2272;49.226;8.108;2022-07-11T11:49:41;27.50;87.30
4520;DHT22;2272;49.226;8.108;2022-07-11T11:52:08;28.00;86.30
4520;DHT22;2272;49.226;8.108;2022-07-11T11:54:35;28.90;85.60
4520;DHT22;2272;49.226;8.108;2022-07-11T11:57:05;29.90;84.10
4520;DHT22;2272;49.226;8.108;2022-07-11T11:59:32;30.40;80.60
4520;DHT22;2272;49.226;8.108;2022-07-11T12:01:59;29.80;79.80
4520;DHT22;2272;49.226;8.108;2022-07-11T12:04:31;29.50;81.70
4520;DHT22;2272;49.226;8.108;2022-07-11T12:06:59;29.70;82.50
4520;DHT22;2272;49.226;8.108;2022-07-11T12:09:27;29.40;82.10
4520;DHT22;2272;49.226;8.108;2022-07-11T12:12:08;28.90;82.50
4520;DHT22;2272;49.226;8.108;2022-07-11T12:14:53;28.40;84.50
4520;DHT22;2272;49.226;8.108;2022-07-11T12:17:23;28.30;83.60
4520;DHT22;2272;49.226;8.108;2022-07-11T12:19:51;28.70;83.80
4520;DHT22;2272;49.226;8.108;2022-07-11T12:22:19;29.00;82.90
4520;DHT22;2272;49.226;8.108;2022-07-11T12:24:47;29.00;83.10
4520;DHT22;2272;49.226;8.108;2022-07-11T12:27:17;29.00;81.70
4520;DHT22;2272;49.226;8.108;2022-07-11T12:29:44;29.30;82.00
4520;DHT22;2272;49.226;8.108;2022-07-11T12:32:16;29.80;79.10
4520;DHT22;2272;49.226;8.108;2022-07-11T12:34:45;29.70;79.70
4520;DHT22;2272;49.226;8.108;2022-07-11T12:37:15;29.80;80.60
4520;DHT22;2272;49.226;8.108;2022-07-11T12:39:48;29.80;79.60
4520;DHT22;2272;49.226;8.108;2022-07-11T12:42:24;29.50;80.90
4520;DHT22;2272;49.226;8.108;2022-07-11T12:44:59;29.10;80.30
4520;DHT22;2272;49.226;8.108;2022-07-11T12:47:26;28.50;81.40
4520;DHT22;2272;49.226;8.108;2022-07-11T12:49:53;28.30;81.50
4520;DHT22;2272;49.226;8.108;2022-07-11T12:52:22;28.30;81.90
4520;DHT22;2272;49.226;8.108;2022-07-11T12:54:49;28.60;82.00
4520;DHT22;2272;49.226;8.108;2022-07-11T12:57:20;29.10;82.40
4520;DHT22;2272;49.226;8.108;2022-07-11T12:59:48;29.60;80.20
4520;DHT22;2272;49.226;8.108;2022-07-11T13:02:15;29.80;80.00
4520;DHT22;2272;49.226;8.108;2022-07-11T13:04:45;29.50;78.70
4520;DHT22;2272;49.226;8.108;2022-07-11T13:07:27;29.30;79.30
4520;DHT22;2272;49.226;8.108;2022-07-11T13:10:14;28.70;80.40
4520;DHT22;2272;49.226;8.108;2022-07-11T13:12:42;28.50;81.60
4520;DHT22;2272;49.226;8.108;2022-07-11T13:15:10;28.70;81.90
4520;DHT22;2272;49.226;8.108;2022-07-11T13:17:39;28.60;81.50
4520;DHT22;2272;49.226;8.108;2022-07-11T13:20:08;28.40;81.90
4520;DHT22;2272;49.226;8.108;2022-07-11T13:22:36;28.60;81.80
4520;DHT22;2272;49.226;8.108;2022-07-11T13:25:03;29.10;80.20
4520;DHT22;2272;49.226;8.108;2022-07-11T13:27:31;29.50;78.70
4520;DHT22;2272;49.226;8.108;2022-07-11T13:29:59;29.70;77.80
4520;DHT22;2272;49.226;8.108;2022-07-11T13:32:25;29.60;78.00
4520;DHT22;2272;49.226;8.108;2022-07-11T13:34:52;28.90;79.60
4520;DHT22;2272;49.226;8.108;2022-07-11T13:37:19;28.40;80.30
4520;DHT22;2272;49.226;8.108;2022-07-11T13:39:47;28.50;81.70
4520;DHT22;2272;49.226;8.108;2022-07-11T13:42:14;29.00;80.50
4520;DHT22;2272;49.226;8.108;2022-07-11T13:44:41;29.20;79.40
4520;DHT22;2272;49.226;8.108;2022-07-11T13:47:07;29.30;78.80
4520;DHT22;2272;49.226;8.108;2022-07-11T13:49:34;29.10;79.10
4520;DHT22;2272;49.226;8.108;2022-07-11T13:52:01;28.70;79.10
4520;DHT22;2272;49.226;8.108;2022-07-11T13:54:28;28.20;80.10
4520;DHT22;2272;49.226;8.108;2022-07-11T13:56:56;27.70;81.10
4520;DHT22;2272;49.226;8.108;2022-07-11T13:59:23;27.50;82.50
4520;DHT22;2272;49.226;8.108;2022-07-11T14:01:50;27.20;82.00
4520;DHT22;2272;49.226;8.108;2022-07-11T14:04:16;27.20;82.90
4520;DHT22;2272;49.226;8.108;2022-07-11T14:06:43;27.40;83.40
4520;DHT22;2272;49.226;8.108;2022-07-11T14:09:10;27.50;82.90
4520;DHT22;2272;49.226;8.108;2022-07-11T14:11:37;28.20;83.70
4520;DHT22;2272;49.226;8.108;2022-07-11T14:14:05;28.30;80.90
4520;DHT22;2272;49.226;8.108;2022-07-11T14:16:32;28.00;81.00
4520;DHT22;2272;49.226;8.108;2022-07-11T14:18:59;27.70;83.60
4520;DHT22;2272;49.226;8.108;2022-07-11T14:21:29;27.50;83.40
4520;DHT22;2272;49.226;8.108;2022-07-11T14:23:57;27.80;81.70
4520;DHT22;2272;49.226;8.108;2022-07-11T14:26:23;28.20;80.90
4520;DHT22;2272;49.226;8.108;2022-07-11T14:28:50;28.10;81.20
4520;DHT22;2272;49.226;8.108;2022-07-11T14:31:18;27.90;82.00
4520;DHT22;2272;49.226;8.108;2022-07-11T14:33:48;27.80;81.90
4520;DHT22;2272;49.226;8.108;2022-07-11T14:36:14;27.90;82.90
4520;DHT22;2272;49.226;8.108;2022-07-11T14:38:42;28.00;81.40
4520;DHT22;2272;49.226;8.108;2022-07-11T14:41:10;27.90;82.90
4520;DHT22;2272;49.226;8.108;2022-07-11T14:43:38;27.80;81.00
4520;DHT22;2272;49.226;8.108;2022-07-11T14:46:06;27.60;82.60
4520;DHT22;2272;49.226;8.108;2022-07-11T14:48:35;27.50;82.30
4520;DHT22;2272;49.226;8.108;2022-07-11T14:51:03;27.50;82.00
4520;DHT22;2272;49.226;8.108;2022-07-11T14:53:30;27.50;82.40
4520;DHT22;2272;49.226;8.108;2022-07-11T14:55:56;27.40;81.50
4520;DHT22;2272;49.226;8.108;2022-07-11T14:58:23;27.50;80.90
4520;DHT22;2272;49.226;8.108;2022-07-11T15:00:50;27.50;81.00
4520;DHT22;2272;49.226;8.108;2022-07-11T15:03:18;27.60;80.00
4520;DHT22;2272;49.226;8.108;2022-07-11T15:06:04;27.70;78.70
4520;DHT22;2272;49.226;8.108;2022-07-11T15:08:32;27.80;78.10
4520;DHT22;2272;49.226;8.108;2022-07-11T15:11:16;27.80;78.90
4520;DHT22;2272;49.226;8.108;2022-07-11T15:14:00;27.60;79.50
4520;DHT22;2272;49.226;8.108;2022-07-11T15:16:27;27.40;80.20
4520;DHT22;2272;49.226;8.108;2022-07-11T15:18:55;27.30;79.30
4520;DHT22;2272;49.226;8.108;2022-07-11T15:21:23;27.20;79.70
4520;DHT22;2272;49.226;8.108;2022-07-11T15:23:50;27.20;80.60
4520;DHT22;2272;49.226;8.108;2022-07-11T15:26:17;27.20;80.90
4520;DHT22;2272;49.226;8.108;2022-07-11T15:28:44;27.20;80.50
4520;DHT22;2272;49.226;8.108;2022-07-11T15:31:12;27.30;80.70
4520;DHT22;2272;49.226;8.108;2022-07-11T15:33:40;27.40;80.90
4520;DHT22;2272;49.226;8.108;2022-07-11T15:36:09;27.50;80.80
4520;DHT22;2272;49.226;8.108;2022-07-11T15:38:37;27.50;80.90
4520;DHT22;2272;49.226;8.108;2022-07-11T15:41:04;27.40;81.60
4520;DHT22;2272;49.226;8.108;2022-07-11T15:43:31;27.00;81.80
4520;DHT22;2272;49.226;8.108;2022-07-11T15:45:57;26.80;80.60
4520;DHT22;2272;49.226;8.108;2022-07-11T15:48:24;26.90;79.80
4520;DHT22;2272;49.226;8.108;2022-07-11T15:50:51;27.10;79.40
4520;DHT22;2272;49.226;8.108;2022-07-11T15:53:18;27.40;79.50
4520;DHT22;2272;49.226;8.108;2022-07-11T15:55:46;27.40;78.90
4520;DHT22;2272;49.226;8.108;2022-07-11T15:58:13;27.10;78.50
4520;DHT22;2272;49.226;8.108;2022-07-11T16:00:40;26.70;79.90
4520;DHT22;2272;49.226;8.108;2022-07-11T16:03:07;26.60;80.30
4520;DHT22;2272;49.226;8.108;2022-07-11T16:05:34;26.70;80.70
4520;DHT22;2272;49.226;8.108;2022-07-11T16:08:02;26.80;79.60
4520;DHT22;2272;49.226;8.108;2022-07-11T16:10:28;26.80;79.00
4520;DHT22;2272;49.226;8.108;2022-07-11T16:12:57;27.10;79.50